Time;durP1;ratioP1;P1;durP2;ratioP2;P2;SDS_P1;SDS_P2;PMS_P1;PMS_P2;Temp;Humidity;BMP_temperature;BMP_pressure;BME280_temperature;BME280_humidity;BME280_pressure;Samples;Min_cycle;Max_cycle;Signal;HPM_P1;HPM_P2
2022/06/10 04:01:51;;;;;;;7.60;3.53;;;13.90;96.30;;;;;;5346816;23;20484;-78
2022/06/10 04:04:16;;;;;;;4.23;2.80;;;14.70;96.30;;;;;;4995422;28;20413;-76
2022/06/10 04:06:42;;;;;;;2.87;2.17;;;15.40;96.30;;;;;;4995199;28;20186;-76
2022/06/10 04:09:09;;;;;;;2.37;2.17;;;16.00;96.30;;;;;;4995893;28;20604;-77
2022/06/10 04:11:34;;;;;;;7.57;2.60;;;16.60;96.30;;;;;;4993862;28;20296;-76
2022/06/10 04:14:00;;;;;;;3.63;1.70;;;16.90;96.30;;;;;;4993896;28;20500;-76
2022/06/10 04:16:27;;;;;;;5.50;2.40;;;17.40;96.30;;;;;;4994497;28;20526;-75
2022/06/10 04:18:53;;;;;;;3.53;1.90;;;17.80;96.30;;;;;;4996875;28;20248;-76
2022/06/10 04:21:18;;;;;;;3.60;2.10;;;18.00;96.30;;;;;;4993546;28;20516;-76
2022/06/10 04:23:43;;;;;;;3.17;2.40;;;18.30;96.30;;;;;;4993626;28;20673;-76
2022/06/10 04:26:09;;;;;;;2.23;2.00;;;18.80;96.30;;;;;;4992756;28;20231;-76
2022/06/10 04:28:35;;;;;;;3.97;1.97;;;19.00;96.30;;;;;;4992538;28;20177;-76
2022/06/10 04:31:00;;;;;;;3.50;2.10;;;18.90;96.30;;;;;;4993564;28;20197;-76
2022/06/10 04:33:26;;;;;;;2.40;1.83;;;18.80;96.30;;;;;;4993419;28;20697;-76
2022/06/10 04:35:51;;;;;;;5.17;2.27;;;18.90;96.30;;;;;;4993382;28;20205;-76
2022/06/10 04:38:20;;;;;;;4.33;1.80;;;19.20;96.30;;;;;;4993101;28;20170;-76
2022/06/10 04:40:47;;;;;;;2.87;1.77;;;19.40;96.30;;;;;;4992465;28;20197;-76
2022/06/10 04:43:12;;;;;;;2.97;2.00;;;19.40;96.30;;;;;;4993507;28;20479;-76
2022/06/10 04:45:41;;;;;;;5.53;2.27;;;19.70;96.30;;;;;;4993476;28;20904;-76
2022/06/10 04:48:07;;;;;;;3.57;2.13;;;19.70;96.30;;;;;;4993422;28;20642;-76
2022/06/10 04:50:33;;;;;;;3.50;1.83;;;19.90;96.30;;;;;;4993577;28;20436;-77
2022/06/10 04:52:59;;;;;;;3.93;1.97;;;20.00;96.30;;;;;;4997016;28;20177;-76
2022/06/10 04:55:25;;;;;;;3.80;1.70;;;20.70;96.30;;;;;;4998450;28;20217;-77
2022/06/10 04:57:54;;;;;;;3.10;2.80;;;20.70;96.30;;;;;;4997541;28;20177;-77
2022/06/10 05:00:32;;;;;;;3.30;1.80;;;20.90;96.30;;;;;;4990489;28;20681;-77
2022/06/10 05:02:58;;;;;;;3.07;1.97;;;21.40;96.30;;;;;;4969725;28;20435;-76
2022/06/10 05:05:24;;;;;;;4.27;2.07;;;21.50;96.30;;;;;;4978320;28;20908;-77
2022/06/10 05:07:50;;;;;;;2.50;1.77;;;21.70;96.30;;;;;;4974027;28;20419;-77
2022/06/10 05:10:17;;;;;;;2.83;1.97;;;21.80;96.30;;;;;;4974271;28;20420;-77
2022/06/10 05:12:44;;;;;;;4.83;2.00;;;21.90;96.30;;;;;;4975188;28;20220;-77
2022/06/10 05:15:11;;;;;;;2.60;1.87;;;21.80;96.30;;;;;;4974982;28;20471;-77
2022/06/10 05:17:36;;;;;;;1.97;1.63;;;22.30;96.30;;;;;;4974605;28;20409;-77
2022/06/10 05:20:03;;;;;;;3.37;1.67;;;22.50;96.10;;;;;;4975148;28;20421;-77
2022/06/10 05:22:28;;;;;;;4.20;1.87;;;22.50;96.30;;;;;;4975730;28;20244;-77
2022/06/10 05:24:54;;;;;;;5.57;2.27;;;23.00;94.30;;;;;;4957786;28;20424;-77
2022/06/10 05:27:19;;;;;;;2.83;1.77;;;23.30;93.50;;;;;;4975137;28;20205;-78
2022/06/10 05:29:45;;;;;;;2.73;1.97;;;23.50;92.90;;;;;;4976850;28;20242;-78
2022/06/10 05:32:10;;;;;;;4.10;1.90;;;24.30;92.20;;;;;;4976921;28;20278;-78
2022/06/10 05:34:48;;;;;;;6.40;1.87;;;24.80;89.40;;;;;;4975453;28;20252;-78
2022/06/10 05:37:18;;;;;;;5.63;2.30;;;24.70;88.50;;;;;;4977051;28;20197;-78
2022/06/10 05:39:43;;;;;;;3.70;1.77;;;25.10;89.80;;;;;;4982212;28;20428;-77
2022/06/10 05:42:09;;;;;;;9.20;2.27;;;25.60;85.50;;;;;;4975761;28;20441;-77
2022/06/10 05:44:41;;;;;;;4.80;1.70;;;25.50;82.30;;;;;;4976775;28;20600;-77
2022/06/10 05:47:09;;;;;;;6.87;1.90;;;25.00;86.40;;;;;;4976169;28;20472;-79
2022/06/10 05:49:38;;;;;;;2.20;1.63;;;24.90;84.60;;;;;;4975186;28;20497;-77
2022/06/10 05:52:06;;;;;;;5.03;1.67;;;25.30;84.30;;;;;;4959629;28;20437;-77
2022/06/10 05:54:32;;;;;;;5.20;2.00;;;25.70;83.70;;;;;;4980670;28;20420;-77
2022/06/10 05:56:58;;;;;;;4.50;1.57;;;25.60;81.00;;;;;;4998888;28;20439;-77
2022/06/10 05:59:23;;;;;;;3.87;1.60;;;25.60;80.50;;;;;;4997752;28;20502;-78
2022/06/10 06:01:49;;;;;;;7.33;1.77;;;23.70;83.80;;;;;;4974503;28;21032;-77
2022/06/10 06:04:14;;;;;;;3.47;1.80;;;23.30;88.70;;;;;;4971597;28;20181;-77
2022/06/10 06:06:41;;;;;;;5.50;1.97;;;22.70;91.20;;;;;;4987506;28;20177;-77
2022/06/10 06:09:07;;;;;;;2.77;1.90;;;22.10;91.50;;;;;;4966122;28;20231;-77
2022/06/10 06:11:32;;;;;;;3.70;1.37;;;22.70;96.30;;;;;;4983583;28;20437;-77
2022/06/10 06:13:58;;;;;;;2.70;1.40;;;23.00;95.30;;;;;;4986572;28;20426;-75
2022/06/10 06:16:24;;;;;;;6.60;1.83;;;22.80;88.50;;;;;;4983940;28;20763;-77
2022/06/10 06:18:51;;;;;;;6.10;2.07;;;22.70;93.30;;;;;;4978999;28;20269;-77
2022/06/10 06:21:16;;;;;;;4.67;1.90;;;22.30;92.10;;;;;;4971030;28;20252;-77
2022/06/10 06:23:42;;;;;;;5.77;1.97;;;22.30;95.60;;;;;;4983600;28;20416;-77
2022/06/10 06:26:13;;;;;;;2.90;1.53;;;22.40;93.80;;;;;;4972066;28;20208;-76
2022/06/10 06:28:39;;;;;;;13.43;1.67;;;22.30;94.10;;;;;;4979218;28;20209;-76
2022/06/10 06:31:04;;;;;;;6.73;2.30;;;22.80;89.10;;;;;;4981932;28;20448;-77
2022/06/10 06:33:30;;;;;;;4.30;1.40;;;22.10;90.10;;;;;;4968616;28;20245;-77
2022/06/10 06:35:56;;;;;;;6.33;1.60;;;22.40;90.80;;;;;;4979812;28;20267;-77
2022/06/10 06:38:23;;;;;;;3.20;1.80;;;23.10;93.10;;;;;;4987374;28;20227;-77
2022/06/10 06:40:49;;;;;;;5.13;1.70;;;23.70;89.90;;;;;;4998312;28;20199;-77
2022/06/10 06:43:14;;;;;;;3.70;1.90;;;23.50;88.90;;;;;;4997736;28;20539;-77
2022/06/10 06:45:42;;;;;;;5.60;1.40;;;23.10;89.70;;;;;;4978937;28;20184;-77
2022/06/10 06:48:10;;;;;;;3.87;1.50;;;23.00;89.40;;;;;;4986707;28;20182;-77
2022/06/10 06:50:41;;;;;;;2.57;1.20;;;22.40;91.90;;;;;;4976927;28;20948;-78
2022/06/10 06:53:07;;;;;;;2.30;1.47;;;22.70;90.80;;;;;;4976203;28;21236;-77
2022/06/10 06:55:34;;;;;;;4.60;2.10;;;23.80;86.60;;;;;;4968344;28;20463;-77
2022/06/10 06:58:00;;;;;;;2.10;1.50;;;25.00;86.10;;;;;;4977112;28;20583;-77
2022/06/10 07:00:27;;;;;;;2.57;1.90;;;25.90;85.80;;;;;;4977679;28;20905;-78
2022/06/10 07:02:53;;;;;;;4.07;2.23;;;25.80;81.10;;;;;;4977317;28;20166;-77
2022/06/10 07:05:18;;;;;;;4.57;1.60;;;25.00;82.40;;;;;;4992134;28;20435;-78
2022/06/10 07:07:44;;;;;;;1.83;1.43;;;25.50;84.50;;;;;;4996436;28;20545;-77
2022/06/10 07:10:13;;;;;;;4.30;1.70;;;26.30;88.80;;;;;;4979233;28;20188;-77
2022/06/10 07:12:38;;;;;;;7.53;1.90;;;27.30;84.40;;;;;;4995318;28;20204;-75
2022/06/10 07:15:05;;;;;;;6.57;1.90;;;28.00;79.10;;;;;;4994937;28;20468;-75
2022/06/10 07:17:32;;;;;;;4.90;2.00;;;27.80;84.60;;;;;;4994728;28;20293;-75
2022/06/10 07:19:58;;;;;;;8.63;1.63;;;27.30;82.40;;;;;;4985870;28;20413;-75
2022/06/10 07:22:24;;;;;;;3.40;1.63;;;26.00;83.70;;;;;;4975259;28;20858;-75
2022/06/10 07:24:49;;;;;;;4.37;1.90;;;25.10;84.50;;;;;;4989616;28;20181;-75
2022/06/10 07:27:15;;;;;;;2.43;1.40;;;24.50;85.10;;;;;;4994712;28;20260;-75
2022/06/10 07:29:40;;;;;;;4.30;1.83;;;24.70;84.50;;;;;;4994288;28;20663;-74
2022/06/10 07:32:06;;;;;;;8.83;1.47;;;24.40;85.80;;;;;;4994814;28;20547;-75
2022/06/10 07:34:32;;;;;;;4.33;1.70;;;24.60;87.30;;;;;;4994666;28;20169;-75
2022/06/10 07:36:57;;;;;;;6.00;2.13;;;25.30;82.90;;;;;;4994511;28;20181;-75
2022/06/10 07:39:22;;;;;;;4.63;1.73;;;24.00;84.70;;;;;;4994154;28;20173;-75
2022/06/10 07:41:57;;;;;;;7.90;2.03;;;25.50;88.30;;;;;;4993706;28;20707;-75
2022/06/10 07:44:31;;;;;;;5.57;2.07;;;26.20;80.70;;;;;;4968376;28;20178;-74
2022/06/10 07:46:58;;;;;;;4.80;2.10;;;26.50;80.20;;;;;;4966972;28;20431;-74
2022/06/10 07:49:24;;;;;;;6.70;1.87;;;25.10;82.00;;;;;;4969081;28;20796;-75
2022/06/10 07:51:50;;;;;;;4.50;1.80;;;24.60;87.20;;;;;;4983583;28;20448;-74
2022/06/10 07:54:15;;;;;;;5.50;1.70;;;24.60;88.30;;;;;;4993874;28;20539;-74
2022/06/10 07:56:41;;;;;;;4.90;1.77;;;24.30;88.80;;;;;;4994028;28;20204;-74
2022/06/10 07:59:09;;;;;;;6.63;1.87;;;23.30;90.00;;;;;;4993715;28;20241;-74
2022/06/10 08:01:35;;;;;;;5.73;1.70;;;22.50;93.00;;;;;;4993852;28;20746;-74
2022/06/10 08:04:00;;;;;;;9.53;2.13;;;23.20;94.70;;;;;;4994048;28;20419;-74
2022/06/10 08:06:28;;;;;;;5.57;1.70;;;23.80;92.40;;;;;;4979582;28;20425;-74
2022/06/10 08:08:55;;;;;;;4.80;1.87;;;25.00;92.90;;;;;;4972444;28;20190;-74
2022/06/10 08:11:21;;;;;;;6.37;1.80;;;24.80;86.70;;;;;;4974171;28;20536;-75
2022/06/10 08:13:47;;;;;;;5.67;1.77;;;24.90;87.90;;;;;;4982324;28;21018;-74
2022/06/10 08:16:14;;;;;;;6.63;2.00;;;23.90;88.50;;;;;;4993781;28;20456;-74
2022/06/10 08:18:40;;;;;;;5.03;1.77;;;22.30;92.70;;;;;;4987840;28;20417;-73
2022/06/10 08:23:51;;;;;;;5.10;1.73;;;23.90;92.50;;;;;;4974406;28;20452;-75
2022/06/10 08:26:18;;;;;;;8.13;2.37;;;23.20;91.70;;;;;;4981052;28;20511;-77
2022/06/10 08:28:46;;;;;;;4.83;1.83;;;23.30;93.60;;;;;;4994502;28;20405;-76
2022/06/10 08:31:11;;;;;;;4.07;1.60;;;24.80;93.60;;;;;;4994180;28;20447;-76
2022/06/10 08:33:37;;;;;;;9.93;1.97;;;24.80;89.50;;;;;;4994248;28;20405;-78
2022/06/10 08:36:03;;;;;;;5.00;1.73;;;24.30;90.00;;;;;;4983934;28;20627;-76
2022/06/10 08:38:30;;;;;;;5.73;2.97;;;23.60;91.80;;;;;;4961401;28;20192;-76
2022/06/10 08:41:00;;;;;;;4.07;1.83;;;24.00;95.40;;;;;;4976789;28;20440;-76
2022/06/10 08:43:33;;;;;;;4.80;2.43;;;24.80;91.50;;;;;;4983611;28;20408;-78
2022/06/10 08:46:35;;;;;;;4.80;1.80;;;25.10;88.50;;;;;;4958066;28;20622;-77
2022/06/10 08:49:24;;;;;;;6.10;1.87;;;25.80;92.30;;;;;;4952357;28;20459;-77
2022/06/10 08:52:08;;;;;;;4.97;2.13;;;27.00;89.50;;;;;;4994395;28;20435;-77
2022/06/10 08:54:46;;;;;;;3.43;1.50;;;27.30;80.90;;;;;;4992686;28;20428;-77
2022/06/10 08:57:40;;;;;;;3.37;1.40;;;26.70;81.90;;;;;;4998834;28;20425;-76
2022/06/10 09:00:12;;;;;;;6.37;2.33;;;25.00;83.80;;;;;;4998236;28;20955;-77
2022/06/10 09:02:52;;;;;;;4.27;1.73;;;25.20;91.10;;;;;;4993716;28;20519;-75
2022/06/10 09:05:24;;;;;;;5.93;2.10;;;26.40;84.10;;;;;;4993855;28;20631;-77
2022/06/10 09:07:53;;;;;;;2.17;1.63;;;26.50;82.10;;;;;;4993833;28;20431;-78
2022/06/10 09:10:24;;;;;;;4.90;2.00;;;25.60;84.10;;;;;;4994118;28;20405;-78
2022/06/10 09:13:11;;;;;;;4.87;2.53;;;24.60;86.00;;;;;;4993218;28;20890;-78
2022/06/10 09:15:49;;;;;;;6.67;2.30;;;22.80;94.00;;;;;;4993128;28;20507;-77
2022/06/10 09:18:47;;;;;;;5.17;2.60;;;22.90;95.90;;;;;;4993205;28;20416;-77
2022/06/10 09:21:25;;;;;;;4.23;1.90;;;24.50;96.30;;;;;;4985017;28;20437;-78
2022/06/10 09:23:55;;;;;;;18.13;2.70;;;24.90;90.40;;;;;;4993592;28;21175;-78
2022/06/10 09:26:46;;;;;;;8.40;2.27;;;24.50;89.00;;;;;;4993650;28;20428;-78
2022/06/10 09:29:12;;;;;;;5.87;2.23;;;25.40;91.70;;;;;;4993407;28;20416;-78
2022/06/10 09:31:53;;;;;;;6.50;2.30;;;24.70;88.40;;;;;;4993994;28;20958;-78
2022/06/10 09:34:44;;;;;;;4.20;2.10;;;23.90;90.00;;;;;;4993607;28;20169;-77
2022/06/10 09:37:49;;;;;;;3.37;2.27;;;23.90;91.70;;;;;;4974210;28;21911;-79
2022/06/10 09:40:38;;;;;;;3.17;2.10;;;24.80;92.50;;;;;;4912844;28;20471;-76
2022/06/10 09:43:19;;;;;;;3.50;2.37;;;24.70;89.10;;;;;;4976692;28;20425;-76
2022/06/10 09:46:01;;;;;;;9.17;2.50;;;24.40;86.50;;;;;;4992213;28;20523;-76
2022/06/10 09:48:58;;;;;;;3.77;1.90;;;22.70;91.10;;;;;;4990483;28;20464;-76
2022/06/10 09:51:26;;;;;;;4.47;2.37;;;22.10;92.60;;;;;;4989542;28;20443;-76
2022/06/10 09:53:57;;;;;;;2.47;1.80;;;22.50;92.20;;;;;;4988451;28;20421;-76
2022/06/10 09:56:41;;;;;;;4.57;2.57;;;23.90;96.30;;;;;;4976600;28;21014;-78
2022/06/10 09:59:25;;;;;;;3.30;2.17;;;24.10;95.30;;;;;;4954221;28;20817;-77
2022/06/10 10:02:20;;;;;;;6.20;2.60;;;25.10;90.30;;;;;;4974601;28;20539;-77
2022/06/10 10:05:01;;;;;;;3.80;2.27;;;25.40;91.70;;;;;;4972909;28;20426;-76
2022/06/10 10:07:49;;;;;;;2.13;1.90;;;24.70;87.50;;;;;;4955341;28;20422;-77
2022/06/10 10:10:24;;;;;;;4.93;2.50;;;23.60;89.20;;;;;;4986850;28;20421;-76
2022/06/10 10:13:16;;;;;;;3.80;1.80;;;22.80;93.40;;;;;;4992252;28;20412;-76
2022/06/10 10:15:49;;;;;;;3.50;2.00;;;22.60;94.80;;;;;;4996131;28;20463;-78
2022/06/10 10:18:43;;;;;;;2.30;1.50;;;23.00;93.80;;;;;;5000841;28;20424;-76
2022/06/10 10:21:14;;;;;;;6.50;2.40;;;22.00;93.00;;;;;;4993158;28;20436;-77
2022/06/10 10:23:42;;;;;;;4.50;2.00;;;21.70;96.30;;;;;;4973573;28;20562;-74
2022/06/10 10:26:37;;;;;;;4.27;1.90;;;21.70;96.30;;;;;;4972014;28;20422;-74
2022/06/10 10:29:16;;;;;;;4.23;1.90;;;22.30;96.30;;;;;;4965162;28;20429;-74
2022/06/10 10:31:49;;;;;;;5.33;2.23;;;22.60;94.30;;;;;;4972654;28;20449;-75
2022/06/10 10:34:22;;;;;;;4.90;2.00;;;23.80;96.30;;;;;;4979842;28;20432;-74
2022/06/10 10:36:54;;;;;;;4.67;1.80;;;23.80;96.30;;;;;;4991679;28;20456;-75
2022/06/10 10:39:31;;;;;;;4.20;2.10;;;23.80;86.70;;;;;;4975147;28;20557;-75
2022/06/10 10:42:01;;;;;;;2.90;1.90;;;24.10;87.80;;;;;;4976094;28;20432;-75
2022/06/10 10:44:36;;;;;;;3.20;1.90;;;24.40;88.50;;;;;;4976876;28;20964;-75
2022/06/10 10:47:11;;;;;;;4.20;1.83;;;24.90;91.10;;;;;;4992978;28;20489;-74
2022/06/10 10:49:54;;;;;;;4.33;1.80;;;24.20;88.90;;;;;;4965633;28;20490;-76
2022/06/10 10:52:49;;;;;;;4.90;1.80;;;23.70;90.80;;;;;;4970524;28;21029;-76
2022/06/10 10:55:17;;;;;;;5.07;1.60;;;23.20;90.00;;;;;;4960258;28;20578;-76
2022/06/10 10:58:21;;;;;;;7.67;1.97;;;23.10;89.30;;;;;;4977483;28;20413;-76
2022/06/10 11:00:57;;;;;;;1.97;1.60;;;23.60;88.30;;;;;;4990906;28;20455;-77
2022/06/10 11:03:36;;;;;;;7.60;2.60;;;22.50;89.50;;;;;;4994677;28;20428;-76
2022/06/10 11:06:05;;;;;;;3.03;1.67;;;22.00;89.80;;;;;;4995205;28;20783;-77
2022/06/10 11:08:38;;;;;;;1.87;1.50;;;22.60;96.30;;;;;;4994506;28;20416;-76
2022/06/10 11:11:25;;;;;;;10.73;2.13;;;23.80;92.30;;;;;;4964924;28;20437;-75
2022/06/10 11:14:00;;;;;;;3.93;1.87;;;23.60;86.60;;;;;;4968347;28;20518;-76
2022/06/10 11:16:34;;;;;;;5.93;2.30;;;24.40;89.20;;;;;;4969877;28;20460;-77
2022/06/10 11:19:35;;;;;;;3.07;1.20;;;25.00;84.00;;;;;;4975460;28;20424;-77
2022/06/10 11:22:31;;;;;;;6.00;1.60;;;24.90;85.10;;;;;;4914913;29;20462;-76
2022/06/10 11:25:22;;;;;;;3.23;1.30;;;24.50;88.50;;;;;;4991152;28;20430;-77
2022/06/10 11:27:50;;;;;;;3.57;1.37;;;24.10;88.70;;;;;;4978214;28;20780;-77
2022/06/10 11:30:21;;;;;;;3.10;1.17;;;24.10;89.80;;;;;;4986928;28;20519;-77
2022/06/10 11:33:16;;;;;;;8.67;1.70;;;24.30;88.50;;;;;;4994504;28;20428;-76
2022/06/10 11:36:07;;;;;;;1.60;1.00;;;24.80;89.10;;;;;;4973106;28;20474;-77
2022/06/10 11:38:34;;;;;;;4.73;1.50;;;25.50;82.70;;;;;;4994341;28;20769;-77
2022/06/10 11:41:23;;;;;;;4.60;1.37;;;26.10;79.90;;;;;;4993683;28;20480;-77
2022/06/10 11:43:54;;;;;;;4.20;2.00;;;25.90;75.90;;;;;;4994486;28;20416;-76
2022/06/10 11:46:53;;;;;;;4.87;1.50;;;26.00;77.80;;;;;;4993632;28;20478;-77
2022/06/10 11:49:30;;;;;;;5.33;1.30;;;26.50;81.90;;;;;;4983827;28;20417;-76
2022/06/10 11:52:21;;;;;;;3.43;1.30;;;26.60;77.30;;;;;;4983624;28;20452;-77
2022/06/10 11:55:14;;;;;;;4.20;1.63;;;26.70;83.10;;;;;;4993661;28;20485;-77
2022/06/10 12:01:03;;;;;;;3.07;1.90;;;24.60;83.00;;;;;;4970765;28;20824;-76
2022/06/10 12:03:50;;;;;;;2.40;1.33;;;24.30;87.60;;;;;;4972300;28;20425;-76
2022/06/10 12:06:29;;;;;;;3.50;1.00;;;24.10;88.10;;;;;;4985023;28;20928;-76
2022/06/10 12:09:09;;;;;;;2.53;1.30;;;23.50;86.90;;;;;;4986244;28;20412;-77
2022/06/10 12:11:52;;;;;;;4.47;1.50;;;23.20;87.00;;;;;;4993215;28;20448;-76
2022/06/10 12:14:25;;;;;;;4.20;1.50;;;22.90;87.60;;;;;;4993861;28;20437;-76
2022/06/10 12:17:16;;;;;;;2.60;1.50;;;22.70;88.90;;;;;;4993630;28;20475;-76
2022/06/10 12:19:57;;;;;;;11.50;1.67;;;22.90;90.10;;;;;;4963155;28;20921;-76
2022/06/10 12:22:24;;;;;;;2.40;1.47;;;23.30;86.50;;;;;;4963275;28;20467;-76
2022/06/10 12:24:50;;;;;;;4.73;2.07;;;24.20;85.10;;;;;;4977442;28;20480;-76
2022/06/10 12:27:25;;;;;;;2.60;1.50;;;24.10;82.30;;;;;;4974340;28;20406;-76
2022/06/10 12:30:02;;;;;;;4.73;1.40;;;23.90;82.30;;;;;;4977784;28;20511;-76
2022/06/10 12:32:57;;;;;;;5.77;1.30;;;23.90;82.60;;;;;;4973315;28;20798;-76
2022/06/10 12:35:29;;;;;;;2.70;1.33;;;23.80;85.40;;;;;;4993252;28;20587;-77
2022/06/10 12:38:10;;;;;;;3.23;1.30;;;23.80;86.20;;;;;;4993165;28;20437;-76
2022/06/10 12:41:13;;;;;;;3.93;1.20;;;23.90;87.80;;;;;;4992102;28;21165;-76
2022/06/10 12:44:02;;;;;;;5.30;1.57;;;23.90;87.20;;;;;;4970294;28;21187;-76
2022/06/10 12:46:51;;;;;;;3.63;1.30;;;24.70;86.10;;;;;;4985089;28;20523;-77
2022/06/10 12:49:27;;;;;;;6.10;1.87;;;25.60;85.30;;;;;;4993685;28;20432;-77
2022/06/10 12:52:19;;;;;;;2.60;1.40;;;25.60;83.90;;;;;;4978377;28;20460;-77
2022/06/10 12:55:05;;;;;;;4.27;1.60;;;26.50;76.30;;;;;;4977334;28;20444;-77
2022/06/10 12:57:40;;;;;;;2.60;1.30;;;26.60;75.50;;;;;;4983759;28;20426;-77
2022/06/10 13:00:18;;;;;;;2.90;1.40;;;25.60;74.50;;;;;;4983547;28;20908;-77
2022/06/10 13:02:49;;;;;;;6.90;1.43;;;25.20;75.70;;;;;;4986253;28;20841;-77
2022/06/10 13:05:20;;;;;;;2.70;1.20;;;25.60;82.20;;;;;;4977274;28;21087;-77
2022/06/10 13:07:49;;;;;;;1.30;0.90;;;25.60;81.50;;;;;;4985501;28;20424;-78
2022/06/10 13:10:35;;;;;;;4.67;1.40;;;25.70;78.40;;;;;;4995721;28;20912;-78
2022/06/10 13:13:18;;;;;;;15.30;1.63;;;26.10;79.30;;;;;;4995629;28;20499;-77
2022/06/10 13:15:44;;;;;;;1.93;1.20;;;26.20;76.00;;;;;;4984566;28;20457;-77
2022/06/10 13:18:32;;;;;;;5.60;1.63;;;26.70;79.40;;;;;;4974431;28;20409;-77
2022/06/10 13:21:11;;;;;;;3.63;1.23;;;27.10;79.60;;;;;;4975030;28;20856;-77
2022/06/10 13:24:02;;;;;;;3.20;1.43;;;27.40;77.50;;;;;;4984208;28;20420;-76
2022/06/10 13:26:30;;;;;;;3.70;1.20;;;26.60;76.70;;;;;;4984541;28;20424;-78
2022/06/10 13:29:15;;;;;;;1.93;1.00;;;26.30;80.20;;;;;;4967356;28;20425;-78
2022/06/10 13:31:46;;;;;;;7.33;1.40;;;26.20;79.20;;;;;;4987196;28;20435;-79
2022/06/10 13:34:21;;;;;;;9.00;1.27;;;25.60;78.60;;;;;;4992988;28;20420;-78
2022/06/10 13:36:53;;;;;;;4.07;1.47;;;24.60;84.20;;;;;;4983637;28;20503;-79
2022/06/10 13:39:35;;;;;;;2.10;1.13;;;24.30;83.00;;;;;;4985263;28;20409;-78
2022/06/10 13:42:02;;;;;;;3.33;1.20;;;24.30;82.00;;;;;;4979385;28;20495;-79
2022/06/10 13:44:46;;;;;;;3.30;1.53;;;24.60;83.90;;;;;;4976678;28;20410;-78
2022/06/10 13:47:29;;;;;;;2.47;1.27;;;25.00;83.00;;;;;;4976495;28;20520;-78
2022/06/10 13:52:48;;;;;;;2.10;1.20;;;25.20;80.70;;;;;;4995789;28;20467;-78
2022/06/10 13:55:18;;;;;;;7.70;1.53;;;25.70;83.20;;;;;;4978048;28;20444;-79
2022/06/10 13:57:45;;;;;;;3.40;1.50;;;;;;;;;;4995154;28;20409;-78
2022/06/10 14:00:21;;;;;;;5.10;1.53;;;25.90;79.60;;;;;;4995951;28;20408;-78
2022/06/10 14:02:47;;;;;;;2.90;2.13;;;26.00;75.30;;;;;;4996741;28;20396;-79
2022/06/10 14:05:22;;;;;;;6.33;1.40;;;25.60;77.00;;;;;;4989196;28;20413;-78
2022/06/10 14:07:48;;;;;;;7.13;1.30;;;25.50;77.70;;;;;;4980032;28;20256;-78
2022/06/10 14:10:28;;;;;;;3.30;1.23;;;25.70;80.30;;;;;;4989675;28;20812;-77
2022/06/10 14:13:00;;;;;;;3.37;1.17;;;25.90;78.90;;;;;;4992748;28;20411;-78
2022/06/10 14:15:29;;;;;;;2.90;1.40;;;25.50;75.30;;;;;;4996182;28;20452;-78
2022/06/10 14:17:59;;;;;;;2.70;1.20;;;25.00;77.20;;;;;;4996055;28;20411;-78
2022/06/10 14:20:29;;;;;;;4.37;1.03;;;24.60;78.70;;;;;;4995923;28;20459;-78
2022/06/10 14:23:07;;;;;;;3.80;1.33;;;24.10;82.60;;;;;;4995995;28;20418;-78
2022/06/10 14:25:34;;;;;;;3.53;1.70;;;23.80;81.20;;;;;;4995514;28;20417;-78
2022/06/10 14:28:00;;;;;;;4.50;1.47;;;24.10;82.00;;;;;;4995260;28;20484;-78
2022/06/10 14:30:37;;;;;;;2.73;1.30;;;24.10;80.10;;;;;;4995786;28;20569;-78
2022/06/10 14:33:20;;;;;;;3.43;1.30;;;24.50;78.90;;;;;;4987720;28;20535;-78
2022/06/10 14:35:49;;;;;;;11.23;1.30;;;24.80;81.60;;;;;;4968045;28;20465;-78
2022/06/10 14:38:16;;;;;;;2.20;1.50;;;25.20;80.50;;;;;;4976323;28;20409;-79
2022/06/10 14:41:07;;;;;;;3.40;2.00;;;24.80;77.80;;;;;;4976366;28;20429;-79
2022/06/10 14:43:53;;;;;;;2.83;1.20;;;25.00;78.70;;;;;;4976405;28;20413;-79
2022/06/10 14:46:19;;;;;;;3.43;1.40;;;25.70;83.70;;;;;;4976596;28;20405;-79
2022/06/10 14:48:46;;;;;;;2.30;1.17;;;26.20;82.50;;;;;;4976198;28;20419;-79
2022/06/10 14:51:21;;;;;;;4.13;1.63;;;26.60;78.70;;;;;;4959057;28;20688;-79
2022/06/10 14:53:55;;;;;;;2.00;1.43;;;26.70;76.60;;;;;;4959131;28;20420;-79
2022/06/10 14:56:40;;;;;;;3.93;1.30;;;26.60;76.50;;;;;;4976270;28;20456;-79
2022/06/10 14:59:19;;;;;;;4.83;1.83;;;26.30;79.40;;;;;;4976098;28;20408;-79
2022/06/10 15:01:44;;;;;;;2.70;1.20;;;25.60;80.50;;;;;;4976061;28;20575;-79
2022/06/10 15:04:12;;;;;;;4.87;1.37;;;25.40;79.70;;;;;;4976111;28;20452;-79
2022/06/10 15:06:40;;;;;;;2.30;1.33;;;25.20;78.40;;;;;;4976828;28;20248;-79
2022/06/10 15:09:10;;;;;;;5.37;1.43;;;25.40;80.60;;;;;;4983062;28;20415;-79
2022/06/10 15:11:35;;;;;;;3.37;1.30;;;25.70;80.60;;;;;;4983103;28;20589;-79
2022/06/10 15:14:02;;;;;;;2.17;1.50;;;25.70;77.50;;;;;;4966554;28;20409;-79
2022/06/10 15:16:27;;;;;;;2.93;1.10;;;25.60;80.40;;;;;;4966260;28;20201;-79
2022/06/10 15:18:53;;;;;;;3.10;1.17;;;25.60;81.80;;;;;;4983409;28;20755;-79
2022/06/10 15:21:30;;;;;;;3.50;1.30;;;25.30;79.70;;;;;;4983706;28;20202;-79
2022/06/10 15:23:57;;;;;;;3.93;1.30;;;25.50;82.80;;;;;;4983024;28;20174;-78
2022/06/10 15:26:27;;;;;;;2.73;1.40;;;25.80;82.00;;;;;;4982502;28;21168;-79
2022/06/10 15:28:53;;;;;;;4.30;1.20;;;25.60;80.10;;;;;;4983032;28;20472;-79
2022/06/10 15:31:21;;;;;;;2.00;1.00;;;25.10;79.10;;;;;;4967603;28;20469;-79
2022/06/10 15:33:48;;;;;;;10.33;1.30;;;24.70;81.00;;;;;;4992953;28;20641;-79
2022/06/10 15:42:06;;;;;;;4.13;1.30;;;25.40;78.70;;;;;;5002976;28;20483;-79
2022/06/10 15:44:34;;;;;;;17.67;1.60;;;25.50;77.00;;;;;;5002067;28;20440;-78
2022/06/10 15:47:02;;;;;;;1.97;1.20;;;25.60;79.50;;;;;;5001841;28;20832;-79
2022/06/10 15:49:29;;;;;;;4.00;1.77;;;25.50;76.50;;;;;;5002166;28;20422;-78
2022/06/10 15:51:57;;;;;;;6.00;1.37;;;25.40;82.10;;;;;;5002334;28;20428;-79
2022/06/10 15:57:06;;;;;;;3.27;1.20;;;25.40;78.90;;;;;;5002774;28;20455;-79
2022/06/10 15:57:28;;;;;;;1.87;1.00;;;25.00;78.40;;;;;;5002435;28;20460;-79
2022/06/10 16:00:00;;;;;;;1.87;1.30;;;24.90;80.10;;;;;;5002197;28;21015;-79
2022/06/10 16:02:29;;;;;;;6.60;1.20;;;25.20;82.70;;;;;;4993444;28;20468;-78
2022/06/10 16:04:55;;;;;;;8.30;1.50;;;25.20;80.20;;;;;;4986336;28;20425;-79
2022/06/10 16:07:23;;;;;;;4.93;1.13;;;24.80;79.40;;;;;;4982476;28;20484;-79
2022/06/10 16:09:50;;;;;;;4.70;1.40;;;24.70;78.10;;;;;;4982970;28;20472;-79
2022/06/10 16:15:17;;;;;;;6.50;1.20;;;25.10;81.80;;;;;;4982815;28;20463;-78
2022/06/10 16:17:44;;;;;;;1.90;1.20;;;24.70;81.80;;;;;;4976539;28;20420;-78
2022/06/10 16:20:11;;;;;;;3.33;1.27;;;24.60;82.00;;;;;;4977245;28;20988;-78
2022/06/10 16:22:37;;;;;;;8.40;1.40;;;24.80;80.00;;;;;;4975992;28;20447;-78
2022/06/10 16:25:03;;;;;;;2.57;1.20;;;24.90;81.20;;;;;;4976567;28;20661;-79
2022/06/10 16:27:29;;;;;;;2.90;1.30;;;24.70;81.40;;;;;;4976209;28;21091;-79
2022/06/10 16:29:57;;;;;;;2.90;1.30;;;24.40;83.00;;;;;;4976317;28;20174;-78
2022/06/10 16:32:24;;;;;;;3.40;1.33;;;24.20;81.10;;;;;;4975758;28;20264;-79
2022/06/10 16:34:50;;;;;;;3.00;1.10;;;23.90;79.70;;;;;;4975795;28;20421;-79
2022/06/10 16:37:16;;;;;;;1.70;0.90;;;23.90;80.30;;;;;;4975773;28;20508;-79
2022/06/10 16:39:42;;;;;;;2.17;1.10;;;24.10;81.30;;;;;;4975647;28;20418;-79
2022/06/10 16:42:23;;;;;;;2.60;1.40;;;24.10;83.40;;;;;;4984136;28;20210;-79
2022/06/10 16:44:49;;;;;;;3.47;1.03;;;24.00;81.60;;;;;;4987097;28;20181;-79
2022/06/10 16:47:15;;;;;;;2.93;1.20;;;23.90;85.20;;;;;;4995020;28;20427;-79
2022/06/10 16:49:42;;;;;;;4.27;1.10;;;23.90;82.50;;;;;;4977652;28;20773;-79
2022/06/10 16:52:20;;;;;;;4.33;1.10;;;23.90;86.30;;;;;;4994028;28;20460;-79
2022/06/10 16:54:47;;;;;;;1.90;1.13;;;23.90;85.80;;;;;;4991618;28;20449;-78
2022/06/10 16:57:17;;;;;;;6.93;1.27;;;23.90;81.90;;;;;;4995568;28;20452;-79
2022/06/10 16:59:44;;;;;;;6.77;1.90;;;23.80;84.90;;;;;;4994794;28;20404;-79
2022/06/10 17:02:27;;;;;;;3.77;1.13;;;23.60;82.40;;;;;;4985441;28;20468;-79
2022/06/10 17:04:57;;;;;;;4.60;1.20;;;23.40;83.60;;;;;;4978899;28;20464;-79
2022/06/10 17:07:26;;;;;;;3.50;1.10;;;23.40;85.50;;;;;;4974316;28;20410;-79
2022/06/10 17:09:52;;;;;;;2.63;1.77;;;23.20;84.60;;;;;;4974361;28;20496;-79
2022/06/10 17:12:22;;;;;;;4.60;1.20;;;23.20;86.10;;;;;;4974437;28;20936;-78
2022/06/10 17:15:23;;;;;;;2.00;1.20;;;23.20;83.00;;;;;;4980354;28;20228;-79
2022/06/10 17:17:50;;;;;;;2.80;0.97;;;23.00;87.30;;;;;;4973834;28;20425;-79
2022/06/10 17:20:25;;;;;;;4.37;1.50;;;22.80;85.70;;;;;;4974295;28;20476;-79
2022/06/10 17:22:51;;;;;;;1.10;0.87;;;22.70;88.00;;;;;;4956864;28;20420;-79
2022/06/10 17:25:18;;;;;;;2.33;1.27;;;22.70;86.10;;;;;;4991298;28;20416;-79
2022/06/10 17:27:44;;;;;;;6.00;1.63;;;22.50;86.30;;;;;;4984980;28;20971;-79
2022/06/10 17:30:22;;;;;;;4.43;2.13;;;22.40;86.20;;;;;;4985145;28;20421;-79
2022/06/10 17:32:48;;;;;;;2.27;0.87;;;22.30;85.80;;;;;;4979011;28;20186;-78
2022/06/10 17:35:18;;;;;;;2.67;1.00;;;22.20;87.40;;;;;;4974414;28;20418;-79